sensor_id;sensor_type;location;lat;lon;timestamp;pressure;altitude;pressure_sealevel;temperature;humidity
57086;BME280;42964;42.910;23.792;2023-08-01T00:01:16;97317.00;;;18.15;82.13
57086;BME280;42964;42.910;23.792;2023-08-01T00:06:15;97307.44;;;18.14;82.10
57086;BME280;42964;42.910;23.792;2023-08-01T00:11:14;97276.47;;;18.00;82.77
57086;BME280;42964;42.910;23.792;2023-08-01T00:16:14;97299.88;;;18.06;83.05
57086;BME280;42964;42.910;23.792;2023-08-01T00:21:13;97303.19;;;17.88;83.49
57086;BME280;42964;42.910;23.792;2023-08-01T00:26:12;97300.06;;;17.78;83.96
57086;BME280;42964;42.910;23.792;2023-08-01T00:31:11;97298.84;;;17.38;85.13
57086;BME280;42964;42.910;23.792;2023-08-01T00:36:10;97283.81;;;17.18;85.35
57086;BME280;42964;42.910;23.792;2023-08-01T00:41:10;97244.13;;;16.77;85.64
57086;BME280;42964;42.910;23.792;2023-08-01T00:46:09;97295.72;;;17.02;85.56
57086;BME280;42964;42.910;23.792;2023-08-01T00:51:09;97289.78;;;16.97;85.60
57086;BME280;42964;42.910;23.792;2023-08-01T00:56:08;97282.09;;;16.92;86.16
57086;BME280;42964;42.910;23.792;2023-08-01T01:01:07;97258.09;;;16.78;86.79
57086;BME280;42964;42.910;23.792;2023-08-01T01:06:08;97278.94;;;16.82;87.51
57086;BME280;42964;42.910;23.792;2023-08-01T01:11:08;97264.19;;;16.78;87.43
57086;BME280;42964;42.910;23.792;2023-08-01T01:16:07;97255.41;;;16.79;87.03
57086;BME280;42964;42.910;23.792;2023-08-01T01:21:05;97254.50;;;16.82;87.54
57086;BME280;42964;42.910;23.792;2023-08-01T01:26:06;97263.13;;;16.84;88.01
57086;BME280;42964;42.910;23.792;2023-08-01T01:31:06;97250.94;;;16.83;88.05
57086;BME280;42964;42.910;23.792;2023-08-01T01:36:05;97254.97;;;16.66;89.34
57086;BME280;42964;42.910;23.792;2023-08-01T01:41:04;97263.25;;;16.54;89.61
57086;BME280;42964;42.910;23.792;2023-08-01T01:46:03;97251.06;;;16.25;90.99
57086;BME280;42964;42.910;23.792;2023-08-01T01:51:02;97243.31;;;16.22;90.54
57086;BME280;42964;42.910;23.792;2023-08-01T01:56:01;97244.69;;;16.34;90.04
57086;BME280;42964;42.910;23.792;2023-08-01T02:01:00;97242.91;;;16.34;89.73
57086;BME280;42964;42.910;23.792;2023-08-01T02:05:58;97242.91;;;16.34;90.28
57086;BME280;42964;42.910;23.792;2023-08-01T02:10:57;97229.41;;;16.20;89.81
57086;BME280;42964;42.910;23.792;2023-08-01T02:15:57;97248.16;;;16.34;90.28
57086;BME280;42964;42.910;23.792;2023-08-01T02:20:56;97247.28;;;16.35;90.02
57086;BME280;42964;42.910;23.792;2023-08-01T02:25:54;97243.72;;;16.36;89.86
57086;BME280;42964;42.910;23.792;2023-08-01T02:30:53;97247.97;;;16.40;89.63
57086;BME280;42964;42.910;23.792;2023-08-01T02:35:52;97250.69;;;16.37;90.12
57086;BME280;42964;42.910;23.792;2023-08-01T02:40:51;97242.72;;;16.40;90.28
57086;BME280;42964;42.910;23.792;2023-08-01T02:45:50;97251.53;;;16.38;90.54
57086;BME280;42964;42.910;23.792;2023-08-01T02:50:49;97256.09;;;16.33;90.71
57086;BME280;42964;42.910;23.792;2023-08-01T02:55:47;97250.31;;;16.21;90.87
57086;BME280;42964;42.910;23.792;2023-08-01T03:00:46;97251.56;;;16.09;90.55
57086;BME280;42964;42.910;23.792;2023-08-01T03:05:46;97258.84;;;16.00;90.66
57086;BME280;42964;42.910;23.792;2023-08-01T03:10:46;97255.47;;;15.96;90.48
57086;BME280;42964;42.910;23.792;2023-08-01T03:15:45;97253.00;;;15.90;90.75
57086;BME280;42964;42.910;23.792;2023-08-01T03:20:44;97252.31;;;15.85;91.40
57086;BME280;42964;42.910;23.792;2023-08-01T03:25:43;97250.66;;;15.81;91.82
57086;BME280;42964;42.910;23.792;2023-08-01T03:30:42;97258.78;;;15.72;92.05
57086;BME280;42964;42.910;23.792;2023-08-01T03:35:40;97260.53;;;15.71;91.83
57086;BME280;42964;42.910;23.792;2023-08-01T03:40:39;97261.22;;;15.78;91.63
57086;BME280;42964;42.910;23.792;2023-08-01T03:45:39;97262.75;;;15.85;91.86
57086;BME280;42964;42.910;23.792;2023-08-01T03:50:38;97253.00;;;15.90;91.64
57086;BME280;42964;42.910;23.792;2023-08-01T03:55:37;97256.41;;;15.94;91.41
57086;BME280;42964;42.910;23.792;2023-08-01T04:00:36;97265.22;;;15.91;91.75
57086;BME280;42964;42.910;23.792;2023-08-01T04:05:35;97154.69;;;15.25;91.73
57086;BME280;42964;42.910;23.792;2023-08-01T04:10:34;97261.69;;;15.92;91.99
57086;BME280;42964;42.910;23.792;2023-08-01T04:15:33;97263.44;;;15.92;92.25
57086;BME280;42964;42.910;23.792;2023-08-01T04:20:31;97258.25;;;15.90;92.20
57086;BME280;42964;42.910;23.792;2023-08-01T04:25:30;97271.88;;;16.01;91.90
57086;BME280;42964;42.910;23.792;2023-08-01T04:30:29;97261.16;;;16.09;92.08
57086;BME280;42964;42.910;23.792;2023-08-01T04:35:28;97264.97;;;16.27;91.76
57086;BME280;42964;42.910;23.792;2023-08-01T04:40:27;97271.00;;;16.29;92.15
57086;BME280;42964;42.910;23.792;2023-08-01T04:45:26;97269.63;;;16.45;91.95
57086;BME280;42964;42.910;23.792;2023-08-01T04:50:24;97268.97;;;16.65;91.72
57086;BME280;42964;42.910;23.792;2023-08-01T04:55:23;97275.03;;;16.94;90.91
57086;BME280;42964;42.910;23.792;2023-08-01T05:00:22;97271.63;;;17.17;90.10
57086;BME280;42964;42.910;23.792;2023-08-01T05:05:22;97270.78;;;17.40;89.64
57086;BME280;42964;42.910;23.792;2023-08-01T05:10:20;97268.56;;;17.53;89.20
57086;BME280;42964;42.910;23.792;2023-08-01T05:15:19;97262.53;;;17.74;88.66
57086;BME280;42964;42.910;23.792;2023-08-01T05:20:18;97267.78;;;17.98;87.34
57086;BME280;42964;42.910;23.792;2023-08-01T05:25:17;97278.59;;;18.12;86.66
57086;BME280;42964;42.910;23.792;2023-08-01T05:30:16;97270.66;;;17.92;86.97
57086;BME280;42964;42.910;23.792;2023-08-01T05:35:15;97277.25;;;18.02;86.96
57086;BME280;42964;42.910;23.792;2023-08-01T05:40:14;97270.09;;;18.29;86.71
57086;BME280;42964;42.910;23.792;2023-08-01T05:45:13;97273.72;;;18.47;84.73
57086;BME280;42964;42.910;23.792;2023-08-01T05:50:12;97276.00;;;18.56;84.20
57086;BME280;42964;42.910;23.792;2023-08-01T05:55:11;97273.63;;;18.72;83.25
57086;BME280;42964;42.910;23.792;2023-08-01T06:00:10;97276.66;;;18.84;83.09
57086;BME280;42964;42.910;23.792;2023-08-01T06:05:10;97271.53;;;19.01;82.38
57086;BME280;42964;42.910;23.792;2023-08-01T06:10:09;97271.19;;;19.29;81.09
57086;BME280;42964;42.910;23.792;2023-08-01T06:15:08;97275.16;;;19.39;79.58
57086;BME280;42964;42.910;23.792;2023-08-01T06:20:07;97267.56;;;19.52;79.36
57086;BME280;42964;42.910;23.792;2023-08-01T06:25:07;97257.03;;;19.73;79.12
57086;BME280;42964;42.910;23.792;2023-08-01T06:30:06;97253.81;;;19.85;77.48
57086;BME280;42964;42.910;23.792;2023-08-01T06:35:07;97246.06;;;20.01;76.79
57086;BME280;42964;42.910;23.792;2023-08-01T06:40:06;97216.78;;;20.07;74.61
57086;BME280;42964;42.910;23.792;2023-08-01T06:45:06;97240.25;;;20.49;73.45
57086;BME280;42964;42.910;23.792;2023-08-01T06:50:05;97241.03;;;20.69;70.62
57086;BME280;42964;42.910;23.792;2023-08-01T06:55:05;97231.88;;;20.93;68.27
57086;BME280;42964;42.910;23.792;2023-08-01T07:00:04;97228.44;;;21.26;63.99
57086;BME280;42964;42.910;23.792;2023-08-01T07:05:04;97206.88;;;21.51;59.84
57086;BME280;42964;42.910;23.792;2023-08-01T07:10:03;97207.06;;;21.80;60.65
57086;BME280;42964;42.910;23.792;2023-08-01T07:15:03;97210.69;;;21.95;58.19
57086;BME280;42964;42.910;23.792;2023-08-01T07:20:02;97217.50;;;22.15;58.93
57086;BME280;42964;42.910;23.792;2023-08-01T07:25:01;97198.59;;;22.23;57.47
57086;BME280;42964;42.910;23.792;2023-08-01T07:30:00;97218.28;;;22.63;58.84
57086;BME280;42964;42.910;23.792;2023-08-01T07:34:59;97212.75;;;22.68;57.03
57086;BME280;42964;42.910;23.792;2023-08-01T07:39:58;97205.94;;;22.94;56.07
57086;BME280;42964;42.910;23.792;2023-08-01T07:44:57;97208.69;;;23.07;53.51
57086;BME280;42964;42.910;23.792;2023-08-01T07:49:56;97201.44;;;23.39;51.42
57086;BME280;42964;42.910;23.792;2023-08-01T07:54:55;97190.50;;;23.59;51.38
57086;BME280;42964;42.910;23.792;2023-08-01T07:59:56;97184.25;;;23.75;50.13
57086;BME280;42964;42.910;23.792;2023-08-01T08:04:55;97180.00;;;23.99;48.76
57086;BME280;42964;42.910;23.792;2023-08-01T08:09:54;97175.91;;;24.22;47.52
57086;BME280;42964;42.910;23.792;2023-08-01T08:14:53;97161.22;;;24.44;46.85
57086;BME280;42964;42.910;23.792;2023-08-01T08:19:52;97166.03;;;24.77;45.42
57086;BME280;42964;42.910;23.792;2023-08-01T08:24:51;97159.97;;;24.89;45.67
57086;BME280;42964;42.910;23.792;2023-08-01T08:29:50;97154.00;;;24.99;44.46
57086;BME280;42964;42.910;23.792;2023-08-01T08:34:49;97152.94;;;25.14;43.59
57086;BME280;42964;42.910;23.792;2023-08-01T08:39:48;97142.72;;;25.33;44.33
57086;BME280;42964;42.910;23.792;2023-08-01T08:44:50;97132.69;;;25.50;42.82
57086;BME280;42964;42.910;23.792;2023-08-01T08:49:52;97131.13;;;25.47;42.15
57086;BME280;42964;42.910;23.792;2023-08-01T08:54:54;97135.25;;;25.64;42.67
57086;BME280;42964;42.910;23.792;2023-08-01T08:59:53;97129.25;;;25.73;41.47
57086;BME280;42964;42.910;23.792;2023-08-01T09:04:53;97123.84;;;25.99;41.34
57086;BME280;42964;42.910;23.792;2023-08-01T09:09:51;97122.22;;;26.09;42.26
57086;BME280;42964;42.910;23.792;2023-08-01T09:14:51;97112.75;;;26.53;41.79
57086;BME280;42964;42.910;23.792;2023-08-01T09:20:04;97102.88;;;26.78;39.84
57086;BME280;42964;42.910;23.792;2023-08-01T09:25:04;97101.69;;;26.82;39.80
57086;BME280;42964;42.910;23.792;2023-08-01T09:30:13;97085.38;;;27.09;39.68
57086;BME280;42964;42.910;23.792;2023-08-01T09:35:15;97093.03;;;27.25;39.02
57086;BME280;42964;42.910;23.792;2023-08-01T09:40:14;97091.19;;;27.26;38.23
57086;BME280;42964;42.910;23.792;2023-08-01T09:45:16;97075.13;;;27.50;37.68
57086;BME280;42964;42.910;23.792;2023-08-01T09:50:23;97075.34;;;27.35;37.89
57086;BME280;42964;42.910;23.792;2023-08-01T09:55:31;97065.13;;;27.63;38.16
57086;BME280;42964;42.910;23.792;2023-08-01T10:00:30;97051.41;;;27.79;38.08
57086;BME280;42964;42.910;23.792;2023-08-01T10:05:31;97041.38;;;28.03;36.93
57086;BME280;42964;42.910;23.792;2023-08-01T10:10:31;97032.78;;;28.32;37.80
57086;BME280;42964;42.910;23.792;2023-08-01T10:15:31;97034.13;;;28.48;36.20
57086;BME280;42964;42.910;23.792;2023-08-01T10:20:30;97020.97;;;28.56;36.64
57086;BME280;42964;42.910;23.792;2023-08-01T10:25:30;97012.38;;;28.73;36.76
57086;BME280;42964;42.910;23.792;2023-08-01T10:30:29;97012.69;;;28.80;35.77
57086;BME280;42964;42.910;23.792;2023-08-01T10:35:46;96998.38;;;28.81;34.90
57086;BME280;42964;42.910;23.792;2023-08-01T10:40:46;96993.91;;;28.91;35.32
57086;BME280;42964;42.910;23.792;2023-08-01T10:45:45;96992.81;;;29.34;34.73
57086;BME280;42964;42.910;23.792;2023-08-01T10:50:54;96986.09;;;29.49;34.30
57086;BME280;42964;42.910;23.792;2023-08-01T10:55:53;96979.22;;;29.86;32.14
57086;BME280;42964;42.910;23.792;2023-08-01T11:00:58;96972.50;;;29.91;31.54
57086;BME280;42964;42.910;23.792;2023-08-01T11:05:57;96966.84;;;30.14;33.06
57086;BME280;42964;42.910;23.792;2023-08-01T11:10:56;96957.75;;;30.34;33.63
57086;BME280;42964;42.910;23.792;2023-08-01T11:15:55;96948.75;;;30.36;32.68
57086;BME280;42964;42.910;23.792;2023-08-01T11:20:55;96910.72;;;30.42;32.68
57086;BME280;42964;42.910;23.792;2023-08-01T11:25:54;96941.41;;;30.85;31.95
57086;BME280;42964;42.910;23.792;2023-08-01T11:30:53;96945.09;;;31.11;31.83
57086;BME280;42964;42.910;23.792;2023-08-01T11:35:52;96939.84;;;31.37;31.31
57086;BME280;42964;42.910;23.792;2023-08-01T11:40:52;96936.78;;;31.32;29.54
57086;BME280;42964;42.910;23.792;2023-08-01T11:45:54;96939.69;;;31.21;29.91
57086;BME280;42964;42.910;23.792;2023-08-01T11:51:00;96895.03;;;31.12;30.29
57086;BME280;42964;42.910;23.792;2023-08-01T11:55:59;96924.16;;;31.25;29.67
57086;BME280;42964;42.910;23.792;2023-08-01T12:01:09;96908.75;;;31.45;30.11
57086;BME280;42964;42.910;23.792;2023-08-01T12:06:08;96898.38;;;31.59;29.19
57086;BME280;42964;42.910;23.792;2023-08-01T12:11:17;96893.66;;;31.79;29.41
57086;BME280;42964;42.910;23.792;2023-08-01T12:16:17;96890.25;;;31.51;28.41
57086;BME280;42964;42.910;23.792;2023-08-01T12:21:18;96872.59;;;31.13;29.27
57086;BME280;42964;42.910;23.792;2023-08-01T12:26:17;96880.78;;;31.11;30.24
57086;BME280;42964;42.910;23.792;2023-08-01T12:31:20;96872.25;;;30.98;29.45
57086;BME280;42964;42.910;23.792;2023-08-01T12:36:20;96861.53;;;30.98;29.37
57086;BME280;42964;42.910;23.792;2023-08-01T12:41:19;96853.16;;;31.11;28.67
57086;BME280;42964;42.910;23.792;2023-08-01T12:46:18;96843.72;;;31.43;29.10
57086;BME280;42964;42.910;23.792;2023-08-01T12:51:17;96841.59;;;31.64;29.83
57086;BME280;42964;42.910;23.792;2023-08-01T12:56:16;96841.84;;;31.79;28.56
57086;BME280;42964;42.910;23.792;2023-08-01T13:01:15;96710.22;;;31.28;29.24
57086;BME280;42964;42.910;23.792;2023-08-01T13:06:14;96832.28;;;32.03;28.61
57086;BME280;42964;42.910;23.792;2023-08-01T13:11:14;96824.72;;;31.98;27.49
57086;BME280;42964;42.910;23.792;2023-08-01T13:16:13;96823.34;;;31.94;27.59
57086;BME280;42964;42.910;23.792;2023-08-01T13:21:13;96778.09;;;31.73;28.07
57086;BME280;42964;42.910;23.792;2023-08-01T13:26:12;96812.09;;;31.90;28.16
57086;BME280;42964;42.910;23.792;2023-08-01T13:31:11;96780.19;;;31.87;28.70
57086;BME280;42964;42.910;23.792;2023-08-01T13:36:10;96798.59;;;32.34;28.18
57086;BME280;42964;42.910;23.792;2023-08-01T13:41:09;96803.44;;;32.65;28.03
57086;BME280;42964;42.910;23.792;2023-08-01T13:46:13;96800.41;;;32.60;26.85
57086;BME280;42964;42.910;23.792;2023-08-01T13:51:13;96805.84;;;32.42;29.57
57086;BME280;42964;42.910;23.792;2023-08-01T13:56:13;96798.13;;;32.47;28.68
57086;BME280;42964;42.910;23.792;2023-08-01T14:01:12;96794.91;;;32.35;29.77
57086;BME280;42964;42.910;23.792;2023-08-01T14:06:13;96787.47;;;32.21;29.47
57086;BME280;42964;42.910;23.792;2023-08-01T14:11:12;96791.66;;;31.97;30.12
57086;BME280;42964;42.910;23.792;2023-08-01T14:16:11;96785.47;;;32.23;29.76
57086;BME280;42964;42.910;23.792;2023-08-01T14:21:10;96786.69;;;32.37;29.98
57086;BME280;42964;42.910;23.792;2023-08-01T14:26:09;96754.03;;;31.55;30.47
57086;BME280;42964;42.910;23.792;2023-08-01T14:31:08;96781.34;;;31.85;30.55
57086;BME280;42964;42.910;23.792;2023-08-01T14:36:09;96781.28;;;32.03;30.45
57086;BME280;42964;42.910;23.792;2023-08-01T14:41:08;96750.59;;;31.71;30.07
57086;BME280;42964;42.910;23.792;2023-08-01T14:46:07;96692.34;;;31.55;30.76
57086;BME280;42964;42.910;23.792;2023-08-01T14:51:06;96783.88;;;32.12;30.28
57086;BME280;42964;42.910;23.792;2023-08-01T14:56:06;96788.41;;;32.12;30.37
57086;BME280;42964;42.910;23.792;2023-08-01T15:01:13;96786.22;;;31.81;31.96
57086;BME280;42964;42.910;23.792;2023-08-01T15:06:13;96769.06;;;31.30;33.76
57086;BME280;42964;42.910;23.792;2023-08-01T15:11:13;96785.00;;;31.13;33.45
57086;BME280;42964;42.910;23.792;2023-08-01T15:16:12;96778.44;;;31.08;34.10
57086;BME280;42964;42.910;23.792;2023-08-01T15:21:11;96769.16;;;31.02;34.24
57086;BME280;42964;42.910;23.792;2023-08-01T15:26:10;96763.78;;;31.02;34.50
57086;BME280;42964;42.910;23.792;2023-08-01T15:31:09;96742.88;;;30.70;34.91
57086;BME280;42964;42.910;23.792;2023-08-01T15:36:08;96758.81;;;30.44;34.79
57086;BME280;42964;42.910;23.792;2023-08-01T15:41:07;96756.31;;;30.42;35.06
57086;BME280;42964;42.910;23.792;2023-08-01T15:46:07;96742.75;;;30.16;35.25
57086;BME280;42964;42.910;23.792;2023-08-01T15:51:07;96761.19;;;30.19;35.31
57086;BME280;42964;42.910;23.792;2023-08-01T15:56:08;96763.44;;;30.24;35.50
57086;BME280;42964;42.910;23.792;2023-08-01T16:01:09;96766.34;;;30.03;35.54
57086;BME280;42964;42.910;23.792;2023-08-01T16:06:09;96769.81;;;30.13;35.79
57086;BME280;42964;42.910;23.792;2023-08-01T16:11:08;96774.81;;;29.98;36.41
57086;BME280;42964;42.910;23.792;2023-08-01T16:16:07;96766.66;;;29.90;36.64
57086;BME280;42964;42.910;23.792;2023-08-01T16:21:06;96774.81;;;29.79;36.56
57086;BME280;42964;42.910;23.792;2023-08-01T16:26:05;96752.09;;;29.65;36.96
57086;BME280;42964;42.910;23.792;2023-08-01T16:31:05;96774.16;;;29.77;37.11
57086;BME280;42964;42.910;23.792;2023-08-01T16:36:05;96775.25;;;29.74;37.18
57086;BME280;42964;42.910;23.792;2023-08-01T16:41:05;96769.25;;;29.72;37.45
57086;BME280;42964;42.910;23.792;2023-08-01T16:46:05;96745.69;;;29.28;37.68
57086;BME280;42964;42.910;23.792;2023-08-01T16:51:04;96786.16;;;29.24;38.00
57086;BME280;42964;42.910;23.792;2023-08-01T16:56:03;96778.00;;;29.06;38.50
57086;BME280;42964;42.910;23.792;2023-08-01T17:01:02;96790.41;;;28.97;39.46
57086;BME280;42964;42.910;23.792;2023-08-01T17:06:01;96793.31;;;28.75;40.38
57086;BME280;42964;42.910;23.792;2023-08-01T17:11:04;96796.38;;;28.60;40.94
57086;BME280;42964;42.910;23.792;2023-08-01T17:16:04;96806.25;;;28.29;41.81
57086;BME280;42964;42.910;23.792;2023-08-01T17:21:03;96800.88;;;28.19;42.50
57086;BME280;42964;42.910;23.792;2023-08-01T17:26:02;96811.41;;;28.21;42.64
57086;BME280;42964;42.910;23.792;2023-08-01T17:31:05;96809.34;;;28.03;43.19
57086;BME280;42964;42.910;23.792;2023-08-01T17:36:04;96805.84;;;27.82;43.33
57086;BME280;42964;42.910;23.792;2023-08-01T17:41:23;96815.47;;;27.64;44.09
57086;BME280;42964;42.910;23.792;2023-08-01T17:46:23;96825.81;;;27.46;44.94
57086;BME280;42964;42.910;23.792;2023-08-01T17:51:23;96834.06;;;27.22;45.48
57086;BME280;42964;42.910;23.792;2023-08-01T17:56:21;96804.50;;;26.81;46.00
57086;BME280;42964;42.910;23.792;2023-08-01T18:01:20;96836.97;;;26.75;46.54
57086;BME280;42964;42.910;23.792;2023-08-01T18:06:19;96841.09;;;26.56;46.64
57086;BME280;42964;42.910;23.792;2023-08-01T18:11:18;96840.03;;;26.36;47.43
57086;BME280;42964;42.910;23.792;2023-08-01T18:16:22;96852.97;;;26.19;47.68
57086;BME280;42964;42.910;23.792;2023-08-01T18:21:21;96855.84;;;26.04;48.05
57086;BME280;42964;42.910;23.792;2023-08-01T18:26:22;96870.69;;;25.84;48.59
57086;BME280;42964;42.910;23.792;2023-08-01T18:31:22;96869.78;;;25.61;49.08
57086;BME280;42964;42.910;23.792;2023-08-01T18:36:22;96875.38;;;25.45;49.95
57086;BME280;42964;42.910;23.792;2023-08-01T18:41:23;96874.81;;;25.29;50.70
57086;BME280;42964;42.910;23.792;2023-08-01T18:46:22;96860.97;;;25.01;51.45
57086;BME280;42964;42.910;23.792;2023-08-01T18:51:21;96877.66;;;24.90;51.93
57086;BME280;42964;42.910;23.792;2023-08-01T18:56:21;96880.88;;;24.70;52.07
57086;BME280;42964;42.910;23.792;2023-08-01T19:01:23;96885.06;;;24.48;52.96
57086;BME280;42964;42.910;23.792;2023-08-01T19:06:25;96881.06;;;24.30;53.07
57086;BME280;42964;42.910;23.792;2023-08-01T19:11:24;96882.31;;;24.12;53.12
57086;BME280;42964;42.910;23.792;2023-08-01T19:16:24;96885.94;;;23.98;53.40
57086;BME280;42964;42.910;23.792;2023-08-01T19:21:23;96882.31;;;23.86;54.40
57086;BME280;42964;42.910;23.792;2023-08-01T19:26:22;96879.78;;;23.72;55.49
57086;BME280;42964;42.910;23.792;2023-08-01T19:31:21;96891.94;;;23.61;56.15
57086;BME280;42964;42.910;23.792;2023-08-01T19:36:21;96895.44;;;23.49;57.41
57086;BME280;42964;42.910;23.792;2023-08-01T19:41:20;96896.19;;;23.37;57.86
57086;BME280;42964;42.910;23.792;2023-08-01T19:46:19;96891.72;;;23.25;58.90
57086;BME280;42964;42.910;23.792;2023-08-01T19:51:18;96887.03;;;23.15;59.26
57086;BME280;42964;42.910;23.792;2023-08-01T19:56:16;96882.53;;;23.03;60.14
57086;BME280;42964;42.910;23.792;2023-08-01T20:01:15;96888.34;;;22.95;60.26
57086;BME280;42964;42.910;23.792;2023-08-01T20:06:14;96882.69;;;22.87;60.85
57086;BME280;42964;42.910;23.792;2023-08-01T20:11:13;96886.69;;;22.80;60.98
57086;BME280;42964;42.910;23.792;2023-08-01T20:16:12;96891.47;;;22.73;61.08
57086;BME280;42964;42.910;23.792;2023-08-01T20:21:11;96893.56;;;22.68;60.96
57086;BME280;42964;42.910;23.792;2023-08-01T20:26:10;96899.22;;;22.62;61.90
57086;BME280;42964;42.910;23.792;2023-08-01T20:31:09;96886.06;;;22.33;64.53
57086;BME280;42964;42.910;23.792;2023-08-01T20:36:09;96898.25;;;22.07;66.21
57086;BME280;42964;42.910;23.792;2023-08-01T20:41:12;96908.25;;;22.16;65.89
57086;BME280;42964;42.910;23.792;2023-08-01T20:46:11;96851.41;;;21.95;64.97
57086;BME280;42964;42.910;23.792;2023-08-01T20:51:10;96888.34;;;22.11;65.24
57086;BME280;42964;42.910;23.792;2023-08-01T20:56:12;96890.38;;;22.06;65.42
57086;BME280;42964;42.910;23.792;2023-08-01T21:01:11;96888.91;;;22.02;65.68
57086;BME280;42964;42.910;23.792;2023-08-01T21:06:13;96880.22;;;22.00;66.18
57086;BME280;42964;42.910;23.792;2023-08-01T21:11:13;96885.47;;;21.85;69.03
57086;BME280;42964;42.910;23.792;2023-08-01T21:16:15;96881.84;;;21.72;69.79
57086;BME280;42964;42.910;23.792;2023-08-01T21:21:14;96878.06;;;21.62;69.78
57086;BME280;42964;42.910;23.792;2023-08-01T21:26:14;96877.16;;;21.47;70.25
57086;BME280;42964;42.910;23.792;2023-08-01T21:31:13;96867.00;;;21.41;70.07
57086;BME280;42964;42.910;23.792;2023-08-01T21:36:12;96879.13;;;21.29;71.52
57086;BME280;42964;42.910;23.792;2023-08-01T21:41:15;96878.69;;;21.05;73.27
57086;BME280;42964;42.910;23.792;2023-08-01T21:46:14;96864.16;;;20.98;73.29
57086;BME280;42964;42.910;23.792;2023-08-01T21:51:13;96862.81;;;20.90;73.66
57086;BME280;42964;42.910;23.792;2023-08-01T21:56:13;96865.13;;;20.81;74.69
57086;BME280;42964;42.910;23.792;2023-08-01T22:01:12;96861.97;;;20.58;75.88
57086;BME280;42964;42.910;23.792;2023-08-01T22:06:11;96873.66;;;20.37;77.09
57086;BME280;42964;42.910;23.792;2023-08-01T22:11:10;96865.22;;;20.30;77.65
57086;BME280;42964;42.910;23.792;2023-08-01T22:16:09;96862.84;;;20.25;77.14
57086;BME280;42964;42.910;23.792;2023-08-01T22:21:08;96858.88;;;20.34;76.67
57086;BME280;42964;42.910;23.792;2023-08-01T22:26:07;96866.53;;;20.39;76.02
57086;BME280;42964;42.910;23.792;2023-08-01T22:31:06;96854.31;;;20.38;75.74
57086;BME280;42964;42.910;23.792;2023-08-01T22:36:09;96849.88;;;20.38;76.08
57086;BME280;42964;42.910;23.792;2023-08-01T22:41:15;96848.16;;;20.37;75.86
57086;BME280;42964;42.910;23.792;2023-08-01T22:46:15;96854.09;;;20.42;75.45
57086;BME280;42964;42.910;23.792;2023-08-01T22:51:15;96863.47;;;20.31;76.41
57086;BME280;42964;42.910;23.792;2023-08-01T22:56:16;96856.91;;;20.22;76.52
57086;BME280;42964;42.910;23.792;2023-08-01T23:01:17;96856.06;;;20.21;76.25
57086;BME280;42964;42.910;23.792;2023-08-01T23:06:16;96801.00;;;19.83;76.68
57086;BME280;42964;42.910;23.792;2023-08-01T23:11:15;96858.66;;;20.05;77.25
57086;BME280;42964;42.910;23.792;2023-08-01T23:16:14;96865.81;;;20.03;77.42
57086;BME280;42964;42.910;23.792;2023-08-01T23:21:13;96857.28;;;19.98;77.99
57086;BME280;42964;42.910;23.792;2023-08-01T23:26:12;96845.22;;;19.94;77.94
57086;BME280;42964;42.910;23.792;2023-08-01T23:31:11;96849.72;;;19.92;79.01
57086;BME280;42964;42.910;23.792;2023-08-01T23:36:10;96836.13;;;19.84;79.22
57086;BME280;42964;42.910;23.792;2023-08-01T23:41:13;96834.63;;;19.78;79.23
57086;BME280;42964;42.910;23.792;2023-08-01T23:46:12;96835.66;;;19.76;79.67
57086;BME280;42964;42.910;23.792;2023-08-01T23:51:18;96847.38;;;19.70;80.39
57086;BME280;42964;42.910;23.792;2023-08-01T23:56:17;96841.16;;;19.71;80.95
